createdAt,value
2019-05-29T00:00:03.698Z,34.97
2019-05-29T00:02:32.493Z,33.60
2019-05-29T00:05:01.319Z,31.53
2019-05-29T00:07:30.151Z,29.93
2019-05-29T00:09:59.091Z,31.80
2019-05-29T00:12:27.971Z,30.00
2019-05-29T00:14:56.787Z,29.60
2019-05-29T00:17:25.706Z,30.33
2019-05-29T00:19:54.632Z,28.50
2019-05-29T00:22:23.548Z,29.13
2019-05-29T00:24:52.395Z,27.23
2019-05-29T00:27:21.210Z,31.13
2019-05-29T00:29:50.053Z,29.23
2019-05-29T00:32:18.900Z,27.47
2019-05-29T00:34:48.001Z,25.90
2019-05-29T00:37:16.888Z,27.03
2019-05-29T00:39:45.737Z,26.33
2019-05-29T00:42:15.902Z,24.77
2019-05-29T00:44:45.060Z,27.20
2019-05-29T00:47:13.870Z,27.20
2019-05-29T00:49:42.757Z,24.90
2019-05-29T00:52:12.231Z,25.00
2019-05-29T00:54:41.255Z,24.10
2019-05-29T00:57:10.900Z,26.07
2019-05-29T00:59:40.004Z,23.30
2019-05-29T01:02:09.570Z,25.80
2019-05-29T01:04:38.548Z,23.50
2019-05-29T01:07:07.426Z,22.47
2019-05-29T01:09:36.299Z,24.87
2019-05-29T01:12:05.255Z,21.07
2019-05-29T01:14:47.261Z,22.00
2019-05-29T01:17:04.919Z,20.93
2019-05-29T01:19:33.956Z,20.57
2019-05-29T01:22:02.805Z,22.23
2019-05-29T01:24:31.663Z,21.87
2019-05-29T01:27:00.522Z,20.83
2019-05-29T01:29:48.648Z,20.80
2019-05-29T01:32:17.578Z,18.03
2019-05-29T01:34:46.577Z,19.33
2019-05-29T01:37:16.088Z,16.20
2019-05-29T01:39:45.047Z,17.30
2019-05-29T01:42:15.155Z,17.63
2019-05-29T01:44:44.119Z,19.67
2019-05-29T01:47:12.902Z,16.67
2019-05-29T01:49:41.749Z,16.57
2019-05-29T01:52:10.516Z,15.87
2019-05-29T01:54:39.333Z,15.10
2019-05-29T01:57:08.278Z,15.00
2019-05-29T01:59:37.163Z,16.10
2019-05-29T02:02:05.995Z,14.73
2019-05-29T02:04:34.802Z,13.83
2019-05-29T02:07:03.609Z,14.80
2019-05-29T02:09:32.377Z,15.20
2019-05-29T02:12:01.233Z,14.13
2019-05-29T02:14:30.096Z,12.90
2019-05-29T02:16:58.922Z,13.43
2019-05-29T02:19:28.219Z,13.73
2019-05-29T02:21:57.349Z,13.83
2019-05-29T02:24:27.374Z,14.00
2019-05-29T02:26:56.381Z,13.00
2019-05-29T02:29:26.959Z,13.60
2019-05-29T02:31:55.958Z,12.10
2019-05-29T02:34:25.483Z,11.93
2019-05-29T02:36:55.314Z,12.90
2019-05-29T02:39:25.624Z,11.73
2019-05-29T02:41:54.858Z,11.27
2019-05-29T02:44:25.278Z,10.77
2019-05-29T02:46:54.389Z,11.77
2019-05-29T02:49:23.856Z,11.03
2019-05-29T02:51:52.895Z,10.83
2019-05-29T02:54:22.559Z,10.17
2019-05-29T02:56:53.199Z,10.23
2019-05-29T02:59:23.457Z,9.97
2019-05-29T03:01:52.570Z,10.63
2019-05-29T03:04:21.780Z,9.83
2019-05-29T03:06:50.757Z,10.60
2019-05-29T03:09:19.574Z,9.53
2019-05-29T03:11:48.377Z,9.17
2019-05-29T03:14:17.241Z,9.93
2019-05-29T03:16:46.192Z,8.60
2019-05-29T03:19:14.988Z,10.40
2019-05-29T03:21:43.765Z,9.27
2019-05-29T03:24:12.595Z,8.67
2019-05-29T03:26:41.379Z,8.47
2019-05-29T03:29:10.208Z,8.80
2019-05-29T03:31:46.539Z,8.23
2019-05-29T03:34:09.609Z,7.57
2019-05-29T03:36:46.409Z,7.97
2019-05-29T03:39:08.989Z,8.77
2019-05-29T03:41:39.046Z,7.90
2019-05-29T03:44:10.539Z,7.80
2019-05-29T03:46:45.345Z,7.33
2019-05-29T03:49:09.724Z,6.93
2019-05-29T03:51:39.053Z,7.70
2019-05-29T03:54:08.019Z,7.90
2019-05-29T03:56:38.769Z,7.23
2019-05-29T03:59:07.580Z,7.60
2019-05-29T04:01:37.466Z,7.47
2019-05-29T04:04:06.580Z,6.87
2019-05-29T04:06:36.141Z,7.00
2019-05-29T04:09:06.904Z,7.03
2019-05-29T04:11:37.894Z,6.57
2019-05-29T04:14:06.962Z,6.87
2019-05-29T04:16:54.001Z,6.60
2019-05-29T04:19:06.633Z,6.27
2019-05-29T04:21:36.394Z,6.17
2019-05-29T04:24:06.934Z,6.40
2019-05-29T04:26:40.005Z,6.90
2019-05-29T04:29:08.841Z,7.80
2019-05-29T04:31:38.398Z,6.33
2019-05-29T04:34:08.428Z,9.07
2019-05-29T04:36:38.889Z,6.87
2019-05-29T04:39:07.814Z,6.33
2019-05-29T04:41:37.081Z,5.80
2019-05-29T04:44:06.446Z,5.47
2019-05-29T04:46:36.461Z,9.53
2019-05-29T04:49:05.884Z,6.87
2019-05-29T04:51:35.378Z,9.00
2019-05-29T04:54:04.576Z,9.50
2019-05-29T04:56:33.426Z,7.30
2019-05-29T04:59:02.445Z,4.93
2019-05-29T05:01:31.930Z,5.80
2019-05-29T05:04:01.919Z,7.70
2019-05-29T05:06:31.205Z,6.63
2019-05-29T05:09:00.155Z,10.07
2019-05-29T05:11:29.361Z,11.40
2019-05-29T05:14:01.490Z,10.33
2019-05-29T05:16:29.747Z,7.73
2019-05-29T05:18:58.727Z,11.13
2019-05-29T05:21:27.579Z,9.90
2019-05-29T05:23:56.453Z,12.07
2019-05-29T05:26:25.345Z,9.03
2019-05-29T05:28:54.230Z,9.67
2019-05-29T05:31:23.129Z,9.93
2019-05-29T05:33:52.010Z,13.97
2019-05-29T05:36:21.153Z,10.83
2019-05-29T05:38:50.029Z,6.83
2019-05-29T05:41:19.054Z,8.63
2019-05-29T05:43:48.135Z,8.97
2019-05-29T05:46:16.942Z,7.03
2019-05-29T05:48:45.857Z,7.93
2019-05-29T05:51:38.117Z,9.53
2019-05-29T05:54:04.675Z,10.20
2019-05-29T05:56:33.666Z,7.30
2019-05-29T05:59:02.724Z,7.07
2019-05-29T06:01:32.092Z,8.80
2019-05-29T06:04:00.991Z,12.10
2019-05-29T06:06:29.813Z,9.27
2019-05-29T06:08:58.750Z,7.83
2019-05-29T06:11:28.904Z,7.47
2019-05-29T06:13:58.023Z,9.00
2019-05-29T06:16:27.091Z,13.27
2019-05-29T06:18:55.869Z,14.53
2019-05-29T06:21:24.789Z,13.47
2019-05-29T06:23:53.648Z,11.30
2019-05-29T06:26:22.439Z,13.27
2019-05-29T06:28:51.425Z,11.37
2019-05-29T06:31:20.260Z,14.37
2019-05-29T06:33:49.156Z,15.70
2019-05-29T06:36:18.788Z,16.67
2019-05-29T06:38:47.663Z,14.00
2019-05-29T06:41:16.491Z,12.30
2019-05-29T06:43:45.286Z,14.37
2019-05-29T06:46:14.124Z,14.47
2019-05-29T06:48:58.033Z,14.27
2019-05-29T06:51:13.799Z,14.23
2019-05-29T06:53:43.946Z,19.87
2019-05-29T06:56:13.060Z,18.53
2019-05-29T06:58:42.215Z,15.50
2019-05-29T07:01:11.179Z,17.30
2019-05-29T07:03:40.051Z,17.77
2019-05-29T07:06:09.062Z,19.00
2019-05-29T07:08:42.391Z,15.43
2019-05-29T07:11:08.457Z,16.07
2019-05-29T07:13:39.779Z,16.93
2019-05-29T07:16:07.869Z,15.70
2019-05-29T07:18:36.687Z,16.30
2019-05-29T07:21:05.564Z,16.13
2019-05-29T07:23:34.347Z,15.90
2019-05-29T07:26:03.299Z,16.20
2019-05-29T07:28:32.238Z,16.73
2019-05-29T07:31:03.450Z,17.53
2019-05-29T07:33:31.614Z,21.07
2019-05-29T07:36:00.443Z,17.03
2019-05-29T07:38:29.285Z,16.93
2019-05-29T07:40:58.102Z,17.33
2019-05-29T07:43:27.002Z,20.33
2019-05-29T07:45:55.793Z,18.00
2019-05-29T07:48:24.655Z,19.73
2019-05-29T07:51:06.351Z,20.53
2019-05-29T07:53:24.172Z,20.73
2019-05-29T07:55:53.007Z,22.00
2019-05-29T07:58:21.828Z,22.03
2019-05-29T08:01:09.322Z,23.53
2019-05-29T08:03:21.481Z,23.57
2019-05-29T08:05:52.664Z,24.47
2019-05-29T08:08:20.942Z,24.37
2019-05-29T08:10:49.866Z,25.13
2019-05-29T08:13:18.771Z,26.20
2019-05-29T08:15:58.478Z,26.47
2019-05-29T08:18:18.208Z,26.43
2019-05-29T08:20:48.074Z,27.23
2019-05-29T08:23:17.090Z,29.40
2019-05-29T08:25:45.894Z,29.70
2019-05-29T08:28:14.787Z,30.37
2019-05-29T08:30:48.495Z,31.03
2019-05-29T08:33:14.418Z,30.73
2019-05-29T08:35:43.351Z,31.17
2019-05-29T08:38:12.153Z,30.53
2019-05-29T08:40:41.043Z,29.73
2019-05-29T08:43:10.032Z,31.07
2019-05-29T08:45:38.910Z,32.20
2019-05-29T08:48:07.788Z,31.20
2019-05-29T08:50:36.607Z,30.97
2019-05-29T08:53:05.414Z,29.90
2019-05-29T08:55:34.365Z,29.27
2019-05-29T08:58:03.315Z,31.47
2019-05-29T09:00:32.195Z,28.97
2019-05-29T09:03:01.094Z,28.70
2019-05-29T09:05:29.892Z,28.17
2019-05-29T09:07:58.688Z,28.80
2019-05-29T09:10:27.544Z,27.60
2019-05-29T09:13:04.444Z,26.97
2019-05-29T09:15:26.916Z,26.83
2019-05-29T09:17:55.698Z,25.83
2019-05-29T09:20:41.889Z,25.57
2019-05-29T09:22:55.267Z,25.10
2019-05-29T09:25:24.086Z,24.40
2019-05-29T09:27:53.038Z,23.60
2019-05-29T09:30:21.889Z,23.17
2019-05-29T09:32:52.994Z,21.97
2019-05-29T09:35:22.034Z,22.27
2019-05-29T09:37:53.231Z,21.73
2019-05-29T09:40:23.087Z,21.00
2019-05-29T09:42:52.163Z,20.10
2019-05-29T09:45:21.516Z,19.30
2019-05-29T09:47:50.787Z,20.00
2019-05-29T09:50:22.769Z,19.73
2019-05-29T09:52:50.200Z,19.50
2019-05-29T09:55:19.406Z,18.47
2019-05-29T09:57:48.232Z,19.33
2019-05-29T10:00:17.283Z,17.37
2019-05-29T10:02:46.164Z,17.57
2019-05-29T10:05:14.966Z,16.93
2019-05-29T10:07:49.892Z,17.63
2019-05-29T10:10:18.832Z,16.17
2019-05-29T10:12:47.715Z,15.60
2019-05-29T10:15:16.582Z,15.73
2019-05-29T10:17:45.546Z,15.83
2019-05-29T10:20:14.488Z,16.20
2019-05-29T10:22:43.320Z,14.63
2019-05-29T10:25:12.120Z,14.87
2019-05-29T10:27:40.998Z,15.07
2019-05-29T10:30:10.962Z,13.87
2019-05-29T10:32:39.753Z,13.87
2019-05-29T10:35:08.646Z,13.63
2019-05-29T10:37:37.751Z,12.87
2019-05-29T10:40:06.988Z,13.40
2019-05-29T10:42:35.870Z,12.80
2019-05-29T10:45:06.325Z,11.60
2019-05-29T10:47:35.171Z,11.80
2019-05-29T10:50:04.135Z,11.67
2019-05-29T10:52:32.999Z,10.67
2019-05-29T10:55:01.991Z,11.20
2019-05-29T10:57:30.815Z,10.93
2019-05-29T10:59:59.586Z,10.63
2019-05-29T11:02:28.478Z,10.40
2019-05-29T11:04:59.489Z,10.37
2019-05-29T11:07:27.880Z,10.23
2019-05-29T11:09:56.664Z,10.00
2019-05-29T11:12:25.500Z,9.83
2019-05-29T11:14:55.040Z,9.10
2019-05-29T11:17:24.070Z,9.40
2019-05-29T11:19:53.544Z,8.83
2019-05-29T11:22:26.367Z,8.83
2019-05-29T11:24:54.119Z,9.43
2019-05-29T11:27:25.981Z,8.03
2019-05-29T11:29:55.079Z,9.93
2019-05-29T11:32:24.117Z,8.67
2019-05-29T11:34:53.818Z,8.00
2019-05-29T11:37:23.158Z,8.17
2019-05-29T11:39:52.588Z,8.50
2019-05-29T11:42:27.383Z,7.40
2019-05-29T11:44:53.459Z,7.40
2019-05-29T11:47:22.871Z,7.50
2019-05-29T11:49:53.032Z,6.60
2019-05-29T11:52:25.079Z,6.90
2019-05-29T11:54:56.155Z,7.57
2019-05-29T11:57:23.201Z,7.40
2019-05-29T12:00:19.521Z,7.37
2019-05-29T12:02:43.393Z,6.87
2019-05-29T12:05:12.235Z,7.00
2019-05-29T12:07:41.011Z,7.23
2019-05-29T12:10:10.252Z,6.70
2019-05-29T12:12:39.285Z,7.87
2019-05-29T12:15:14.330Z,6.97
2019-05-29T12:17:39.228Z,7.60
2019-05-29T12:20:26.405Z,8.83
2019-05-29T12:22:38.978Z,7.30
2019-05-29T12:25:08.517Z,7.77
2019-05-29T12:27:37.296Z,8.40
2019-05-29T12:30:06.305Z,8.50
2019-05-29T12:32:35.320Z,8.30
2019-05-29T12:35:04.595Z,8.87
2019-05-29T12:37:33.508Z,9.07
2019-05-29T12:40:03.693Z,9.73
2019-05-29T12:42:32.711Z,9.00
2019-05-29T12:45:02.089Z,8.20
2019-05-29T12:47:30.985Z,9.73
2019-05-29T12:50:00.540Z,10.57
2019-05-29T12:52:30.418Z,11.10
2019-05-29T12:55:00.042Z,10.90
2019-05-29T12:57:29.018Z,11.03
2019-05-29T12:59:58.035Z,11.90
2019-05-29T13:02:27.010Z,11.30
2019-05-29T13:05:11.307Z,12.07
2019-05-29T13:07:26.468Z,12.03
2019-05-29T13:09:56.703Z,11.53
2019-05-29T13:12:25.745Z,11.23
2019-05-29T13:14:54.625Z,11.23
2019-05-29T13:17:23.415Z,11.43
2019-05-29T13:19:52.295Z,11.87
2019-05-29T13:22:21.188Z,12.03
2019-05-29T13:24:52.683Z,12.50
2019-05-29T13:27:20.541Z,12.57
2019-05-29T13:29:49.526Z,11.90
2019-05-29T13:32:18.493Z,11.80
2019-05-29T13:34:47.331Z,13.00
2019-05-29T13:37:16.128Z,11.87
2019-05-29T13:39:45.044Z,11.80
2019-05-29T13:42:15.323Z,11.47
2019-05-29T13:44:44.386Z,12.20
2019-05-29T13:47:13.298Z,12.77
2019-05-29T13:49:42.112Z,13.63
2019-05-29T13:52:12.458Z,13.57
2019-05-29T13:54:41.626Z,14.33
2019-05-29T13:57:10.479Z,16.47
2019-05-29T13:59:39.384Z,15.33
2019-05-29T14:02:09.793Z,18.07
2019-05-29T14:04:38.875Z,17.93
2019-05-29T14:07:08.827Z,18.33
2019-05-29T14:09:37.895Z,18.33
2019-05-29T14:12:07.379Z,18.33
2019-05-29T14:14:36.388Z,18.03
2019-05-29T14:17:06.506Z,18.63
2019-05-29T14:19:35.575Z,19.93
2019-05-29T14:22:05.045Z,19.53
2019-05-29T14:24:34.050Z,19.70
2019-05-29T14:27:03.366Z,19.47
2019-05-29T14:29:32.345Z,20.57
2019-05-29T14:32:01.197Z,20.17
2019-05-29T14:34:30.125Z,19.87
2019-05-29T14:36:59.145Z,21.53
2019-05-29T14:39:28.132Z,21.97
2019-05-29T14:41:57.007Z,19.93
2019-05-29T14:44:25.924Z,21.03
2019-05-29T14:46:54.878Z,22.47
2019-05-29T14:49:26.848Z,22.60
2019-05-29T14:51:54.244Z,23.00
2019-05-29T14:54:40.236Z,24.33
2019-05-29T14:56:53.766Z,22.20
2019-05-29T14:59:22.917Z,24.40
2019-05-29T15:01:51.770Z,24.00
2019-05-29T15:04:20.781Z,24.93
2019-05-29T15:06:49.737Z,24.40
2019-05-29T15:09:18.657Z,25.33
2019-05-29T15:11:47.578Z,24.70
2019-05-29T15:14:16.364Z,24.63
2019-05-29T15:16:45.437Z,24.47
2019-05-29T15:19:15.225Z,25.17
2019-05-29T15:21:44.212Z,25.03
2019-05-29T15:24:13.671Z,23.17
2019-05-29T15:26:42.547Z,23.40
2019-05-29T15:29:14.449Z,24.13
2019-05-29T15:31:42.051Z,23.50
2019-05-29T15:34:12.272Z,23.60
2019-05-29T15:36:41.351Z,23.60
2019-05-29T15:39:10.678Z,22.47
2019-05-29T15:41:39.698Z,21.73
2019-05-29T15:44:08.829Z,21.20
2019-05-29T15:46:37.792Z,21.07
2019-05-29T15:49:06.843Z,22.27
2019-05-29T15:51:35.875Z,20.70
2019-05-29T15:54:04.796Z,20.43
2019-05-29T15:56:33.705Z,20.83
2019-05-29T15:59:02.719Z,20.50
2019-05-29T16:01:31.570Z,20.43
2019-05-29T16:04:00.361Z,19.47
2019-05-29T16:06:29.180Z,19.27
2019-05-29T16:08:58.171Z,19.20
2019-05-29T16:11:27.139Z,20.57
2019-05-29T16:13:56.015Z,18.40
2019-05-29T16:16:24.852Z,19.47
2019-05-29T16:18:53.824Z,13.30
2019-05-29T16:21:23.208Z,9.00
2019-05-29T16:23:52.427Z,6.97
2019-05-29T16:26:21.500Z,10.73
2019-05-29T16:28:50.422Z,6.03
2019-05-29T16:31:19.227Z,5.70
2019-05-29T16:33:48.183Z,7.00
2019-05-29T16:36:18.546Z,9.93
2019-05-29T16:38:47.731Z,9.57
2019-05-29T16:41:17.785Z,7.13
2019-05-29T16:43:47.118Z,7.67
2019-05-29T16:46:18.861Z,7.03
2019-05-29T16:48:46.518Z,7.55
2019-05-29T16:51:16.636Z,8.50
2019-05-29T16:53:45.640Z,6.73
2019-05-29T16:56:14.772Z,8.00
2019-05-29T16:58:43.939Z,8.07
2019-05-29T17:01:13.400Z,6.43
2019-05-29T17:03:42.333Z,6.07
2019-05-29T17:06:11.253Z,5.93
2019-05-29T17:08:40.276Z,6.80
2019-05-29T17:11:09.394Z,7.50
2019-05-29T17:13:38.271Z,6.23
2019-05-29T17:16:07.073Z,8.53
2019-05-29T17:18:35.916Z,9.97
2019-05-29T17:21:04.827Z,8.77
2019-05-29T17:23:33.632Z,8.17
2019-05-29T17:26:10.638Z,7.53
2019-05-29T17:28:33.311Z,6.83
2019-05-29T17:31:02.652Z,7.97
2019-05-29T17:33:31.504Z,13.43
2019-05-29T17:36:00.427Z,9.97
2019-05-29T17:38:29.416Z,12.30
2019-05-29T17:40:59.850Z,9.23
2019-05-29T17:43:28.953Z,8.10
2019-05-29T17:45:57.992Z,7.97
2019-05-29T17:48:26.902Z,8.90
2019-05-29T17:50:55.973Z,9.00
2019-05-29T17:53:26.199Z,8.83
2019-05-29T17:55:55.217Z,10.30
2019-05-29T17:58:24.998Z,11.20
2019-05-29T18:00:55.029Z,12.63
2019-05-29T18:03:24.621Z,9.57
2019-05-29T18:05:53.539Z,8.13
2019-05-29T18:08:22.879Z,8.70
2019-05-29T18:10:52.036Z,8.73
2019-05-29T18:13:21.398Z,11.83
2019-05-29T18:15:50.521Z,9.37
2019-05-29T18:18:19.837Z,10.57
2019-05-29T18:20:49.019Z,11.27
2019-05-29T18:23:17.973Z,11.80
2019-05-29T18:25:47.024Z,13.33
2019-05-29T18:28:15.977Z,13.30
2019-05-29T18:30:45.047Z,10.60
2019-05-29T18:33:14.000Z,9.83
2019-05-29T18:35:42.887Z,11.20
2019-05-29T18:38:12.030Z,8.10
2019-05-29T18:40:41.147Z,7.80
2019-05-29T18:43:09.940Z,7.17
2019-05-29T18:45:38.863Z,4.97
2019-05-29T18:48:07.769Z,5.40
2019-05-29T18:50:36.610Z,8.70
2019-05-29T18:53:05.503Z,6.57
2019-05-29T18:55:34.589Z,7.00
2019-05-29T18:58:03.772Z,5.27
2019-05-29T19:00:32.776Z,7.00
2019-05-29T19:03:02.040Z,5.20
2019-05-29T19:05:31.830Z,5.13
2019-05-29T19:08:00.820Z,6.90
2019-05-29T19:10:29.833Z,7.20
2019-05-29T19:12:58.856Z,8.90
2019-05-29T19:15:28.081Z,9.20
2019-05-29T19:17:57.384Z,8.07
2019-05-29T19:20:26.378Z,6.30
2019-05-29T19:22:55.356Z,5.17
2019-05-29T19:25:24.641Z,4.07
2019-05-29T19:27:53.912Z,10.53
2019-05-29T19:30:22.954Z,7.77
2019-05-29T19:32:54.880Z,6.73
2019-05-29T19:35:23.830Z,4.73
2019-05-29T19:37:56.801Z,8.23
2019-05-29T19:40:26.137Z,7.43
2019-05-29T19:42:55.056Z,7.47
2019-05-29T19:45:24.637Z,5.67
2019-05-29T19:48:13.152Z,9.43
2019-05-29T19:50:42.179Z,9.63
2019-05-29T19:53:10.970Z,6.67
2019-05-29T19:55:39.791Z,8.40
2019-05-29T19:58:08.577Z,10.67
2019-05-29T20:00:37.532Z,7.77
2019-05-29T20:03:06.482Z,8.43
2019-05-29T20:05:35.376Z,7.10
2019-05-29T20:08:04.222Z,11.07
2019-05-29T20:10:33.444Z,8.27
2019-05-29T20:13:02.524Z,4.40
2019-05-29T20:15:31.906Z,8.90
2019-05-29T20:18:00.878Z,7.83
2019-05-29T20:20:30.422Z,4.53
2019-05-29T20:22:59.359Z,6.60
2019-05-29T20:25:28.837Z,8.40
2019-05-29T20:28:06.014Z,6.73
2019-05-29T20:30:28.601Z,7.93
2019-05-29T20:32:57.593Z,8.23
2019-05-29T20:35:26.602Z,8.20
2019-05-29T20:38:14.840Z,10.93
2019-05-29T20:40:43.864Z,9.27
2019-05-29T20:43:12.660Z,7.80
2019-05-29T20:45:41.751Z,7.90
2019-05-29T20:48:10.786Z,8.63
2019-05-29T20:50:39.784Z,9.97
2019-05-29T20:53:09.444Z,23.40
2019-05-29T20:55:38.348Z,15.10
2019-05-29T20:58:23.531Z,12.30
2019-05-29T21:00:38.377Z,17.17
2019-05-29T21:03:07.510Z,11.53
2019-05-29T21:05:36.620Z,7.30
2019-05-29T21:08:05.599Z,10.20
2019-05-29T21:10:35.077Z,18.33
2019-05-29T21:13:04.208Z,11.80
2019-05-29T21:15:33.937Z,12.43
2019-05-29T21:18:02.841Z,12.30
2019-05-29T21:20:32.345Z,10.37
2019-05-29T21:23:01.470Z,10.20
2019-05-29T21:25:30.287Z,11.60
2019-05-29T21:27:59.273Z,16.13
2019-05-29T21:30:28.148Z,13.23
2019-05-29T21:32:56.942Z,17.53
2019-05-29T21:35:25.717Z,13.90
2019-05-29T21:37:54.629Z,12.10
2019-05-29T21:40:23.632Z,13.90
2019-05-29T21:42:52.433Z,14.17
2019-05-29T21:45:21.316Z,14.73
2019-05-29T21:47:51.545Z,12.93
2019-05-29T21:50:20.485Z,17.73
2019-05-29T21:52:49.296Z,10.63
2019-05-29T21:55:18.145Z,10.60
2019-05-29T21:57:49.825Z,11.60
2019-05-29T22:00:23.781Z,14.20
2019-05-29T22:02:52.783Z,12.33
2019-05-29T22:05:21.657Z,20.90
2019-05-29T22:07:50.512Z,13.47
2019-05-29T22:10:19.446Z,15.63
2019-05-29T22:12:48.430Z,28.47
2019-05-29T22:15:17.578Z,33.50
2019-05-29T22:17:46.610Z,20.43
2019-05-29T22:20:15.547Z,20.33
2019-05-29T22:22:44.355Z,23.10
2019-05-29T22:25:13.227Z,26.47
2019-05-29T22:27:42.090Z,26.00
2019-05-29T22:30:12.687Z,18.57
2019-05-29T22:32:41.556Z,20.10
2019-05-29T22:35:10.464Z,20.30
2019-05-29T22:37:39.505Z,17.77
2019-05-29T22:40:08.459Z,26.53
2019-05-29T22:42:37.413Z,23.40
2019-05-29T22:45:06.512Z,21.90
2019-05-29T22:47:35.408Z,18.27
2019-05-29T22:50:04.582Z,17.47
2019-05-29T22:52:33.647Z,18.23
2019-05-29T22:55:02.548Z,15.60
2019-05-29T22:57:31.530Z,23.13
2019-05-29T23:00:03.921Z,15.17
2019-05-29T23:02:32.800Z,24.97
2019-05-29T23:05:03.699Z,16.50
2019-05-29T23:07:32.375Z,13.60
2019-05-29T23:10:02.568Z,15.20
2019-05-29T23:12:31.670Z,15.10
2019-05-29T23:15:01.026Z,13.03
2019-05-29T23:17:30.174Z,11.93
2019-05-29T23:20:00.600Z,13.87
2019-05-29T23:22:29.891Z,16.27
2019-05-29T23:24:59.206Z,13.30
2019-05-29T23:27:28.211Z,14.30
2019-05-29T23:29:57.088Z,13.43
2019-05-29T23:32:25.996Z,12.80
2019-05-29T23:34:55.307Z,19.50
2019-05-29T23:37:24.216Z,14.67
2019-05-29T23:39:53.219Z,10.93
2019-05-29T23:42:22.368Z,14.07
2019-05-29T23:44:53.899Z,10.20
2019-05-29T23:47:21.798Z,13.80
2019-05-29T23:49:50.587Z,10.93
2019-05-29T23:52:20.925Z,9.90
2019-05-29T23:54:49.775Z,12.37
2019-05-29T23:57:18.973Z,11.07
